Time;durP1;ratioP1;P1;durP2;ratioP2;P2;SDS_P1;SDS_P2;PMS_P1;PMS_P2;Temp;Humidity;BMP_temperature;BMP_pressure;BME280_temperature;BME280_humidity;BME280_pressure;Samples;Min_cycle;Max_cycle;Signal;HPM_P1;HPM_P2
2022/10/05 00:01:43;;;;;;;3.95;2.70;;;10.40;78.50;;;;;;5016237;28;20045;-78
2022/10/05 00:04:17;;;;;;;4.93;3.22;;;10.40;78.70;;;;;;5015980;28;20561;-79
2022/10/05 00:07:12;;;;;;;7.22;2.80;;;10.40;78.80;;;;;;5015955;28;20025;-78
2022/10/05 00:09:38;;;;;;;6.38;3.08;;;10.30;79.00;;;;;;5013772;28;20552;-78
2022/10/05 00:12:18;;;;;;;5.75;3.40;;;10.30;79.00;;;;;;5016442;28;20025;-78
2022/10/05 00:14:47;;;;;;;5.90;3.08;;;10.20;79.40;;;;;;5016225;28;20064;-77
2022/10/05 00:17:22;;;;;;;5.68;2.72;;;10.20;79.50;;;;;;5015939;28;20049;-78
2022/10/05 00:19:51;;;;;;;4.55;2.70;;;10.10;79.70;;;;;;5016135;28;20025;-78
2022/10/05 00:22:31;;;;;;;4.03;2.33;;;10.10;79.50;;;;;;5016235;28;20026;-77
2022/10/05 00:24:59;;;;;;;4.00;2.67;;;10.10;79.40;;;;;;5016133;28;20386;-78
2022/10/05 00:27:33;;;;;;;3.22;2.42;;;10.20;79.30;;;;;;5016224;28;20076;-78
2022/10/05 00:30:10;;;;;;;6.82;3.15;;;10.30;79.20;;;;;;5016583;28;20384;-77
2022/10/05 00:32:35;;;;;;;3.85;2.58;;;10.30;78.90;;;;;;5015898;28;20025;-77
2022/10/05 00:35:01;;;;;;;5.22;2.47;;;10.30;78.80;;;;;;5015701;28;20136;-77
2022/10/05 00:37:27;;;;;;;6.13;2.53;;;10.30;78.60;;;;;;5015649;28;20036;-77
2022/10/05 00:39:52;;;;;;;5.22;2.60;;;10.30;78.40;;;;;;5015998;28;20029;-77
2022/10/05 00:42:30;;;;;;;4.97;2.15;;;10.30;78.50;;;;;;5015420;28;20033;-77
2022/10/05 00:45:07;;;;;;;5.18;2.47;;;10.30;78.50;;;;;;5015364;28;20132;-77
2022/10/05 00:47:54;;;;;;;7.57;2.63;;;10.30;78.50;;;;;;5015417;28;20017;-77
2022/10/05 00:50:37;;;;;;;7.43;2.50;;;10.30;78.40;;;;;;5015289;28;20025;-78
2022/10/05 00:53:38;;;;;;;3.30;2.63;;;10.30;78.50;;;;;;5015784;28;20029;-77
2022/10/05 00:56:23;;;;;;;4.05;2.55;;;10.30;78.70;;;;;;5015644;28;20451;-77
2022/10/05 00:59:03;;;;;;;3.75;2.50;;;10.30;78.50;;;;;;5015472;28;20131;-77
2022/10/05 01:01:38;;;;;;;5.18;2.92;;;10.30;78.40;;;;;;5015730;28;20025;-77
2022/10/05 01:04:14;;;;;;;6.30;2.60;;;10.30;78.40;;;;;;5015655;28;20032;-78
2022/10/05 01:06:46;;;;;;;4.70;2.55;;;10.30;78.80;;;;;;5015665;28;20458;-77
2022/10/05 01:09:31;;;;;;;5.60;3.00;;;10.30;78.60;;;;;;5015616;28;20485;-77
2022/10/05 01:12:15;;;;;;;5.90;2.60;;;10.30;78.50;;;;;;5015620;28;20029;-77
2022/10/05 01:15:19;;;;;;;6.28;2.60;;;10.30;78.40;;;;;;5014993;28;20044;-77
2022/10/05 01:18:19;;;;;;;6.65;3.05;;;10.30;78.40;;;;;;5014920;28;20049;-77
2022/10/05 01:21:10;;;;;;;3.80;2.85;;;10.20;78.50;;;;;;5015446;28;20075;-77
2022/10/05 01:24:07;;;;;;;4.50;2.63;;;10.20;78.70;;;;;;5032573;28;20021;-77
2022/10/05 01:26:52;;;;;;;9.07;2.70;;;10.20;78.80;;;;;;5014839;28;20148;-77
2022/10/05 01:29:39;;;;;;;4.65;2.28;;;10.30;79.00;;;;;;5015189;28;20033;-77
2022/10/05 01:32:18;;;;;;;5.32;2.50;;;10.30;78.90;;;;;;5015164;28;20025;-77
2022/10/05 01:34:55;;;;;;;7.53;2.63;;;10.30;78.90;;;;;;5015218;28;20029;-77
2022/10/05 01:37:36;;;;;;;4.18;2.40;;;10.30;78.80;;;;;;5015056;28;20017;-77
2022/10/05 01:40:18;;;;;;;3.22;2.30;;;10.40;78.80;;;;;;5015228;28;20112;-77
2022/10/05 01:43:12;;;;;;;3.70;2.45;;;10.40;78.80;;;;;;5014467;28;20025;-77
2022/10/05 01:45:50;;;;;;;3.00;2.58;;;10.40;78.80;;;;;;5015011;28;20029;-77
2022/10/05 01:48:25;;;;;;;4.35;2.67;;;10.40;79.40;;;;;;5015138;28;20021;-78
2022/10/05 01:51:26;;;;;;;5.50;2.85;;;10.40;79.40;;;;;;5031379;28;20040;-77
2022/10/05 01:54:17;;;;;;;5.70;2.53;;;10.50;79.50;;;;;;5010212;28;20038;-78
2022/10/05 01:56:59;;;;;;;6.05;3.08;;;10.50;79.70;;;;;;5015056;28;20151;-77
2022/10/05 02:00:13;;;;;;;7.40;3.25;;;10.40;79.70;;;;;;5031463;28;20119;-77
2022/10/05 02:03:09;;;;;;;4.57;2.75;;;10.50;80.40;;;;;;5011705;28;20052;-77
2022/10/05 02:05:42;;;;;;;6.73;2.83;;;10.50;80.00;;;;;;5028661;28;20030;-77
2022/10/05 02:08:18;;;;;;;4.75;2.13;;;10.50;80.10;;;;;;5033792;28;20064;-77
2022/10/05 02:11:01;;;;;;;2.85;2.50;;;10.50;80.10;;;;;;5018671;28;20049;-77
2022/10/05 02:13:36;;;;;;;3.78;2.60;;;10.60;80.50;;;;;;5034555;28;20041;-77
2022/10/05 02:16:09;;;;;;;3.25;2.33;;;10.60;80.50;;;;;;5018219;28;20053;-77
2022/10/05 02:18:44;;;;;;;5.13;2.65;;;10.60;80.60;;;;;;5018252;28;20028;-77
2022/10/05 02:21:10;;;;;;;3.83;2.45;;;10.60;80.60;;;;;;5034995;28;20168;-77
2022/10/05 02:23:39;;;;;;;4.85;2.60;;;10.60;80.80;;;;;;5034240;28;20116;-77
2022/10/05 02:26:07;;;;;;;3.47;2.92;;;10.60;81.00;;;;;;5034636;28;20041;-77
2022/10/05 02:28:46;;;;;;;4.30;2.33;;;10.60;81.10;;;;;;5034660;28;20116;-78
2022/10/05 02:31:16;;;;;;;4.22;2.42;;;10.60;81.10;;;;;;5034861;28;20026;-78
2022/10/05 02:33:42;;;;;;;3.58;2.85;;;10.60;81.20;;;;;;5033772;28;20430;-79
2022/10/05 02:36:28;;;;;;;5.55;2.90;;;10.60;82.20;;;;;;5034552;28;20035;-78
2022/10/05 02:39:19;;;;;;;5.78;2.80;;;10.60;82.00;;;;;;5034298;28;20022;-78
2022/10/05 02:42:02;;;;;;;7.72;3.45;;;10.60;82.00;;;;;;5035648;28;20033;-78
2022/10/05 02:44:48;;;;;;;7.75;3.63;;;10.50;82.20;;;;;;5034389;28;20017;-77
2022/10/05 02:47:48;;;;;;;8.15;3.35;;;10.50;82.40;;;;;;5018089;28;20025;-78
2022/10/05 02:50:26;;;;;;;4.43;3.22;;;10.50;82.60;;;;;;5034187;28;20105;-78
2022/10/05 02:53:16;;;;;;;4.03;2.97;;;10.50;83.00;;;;;;5017872;28;20527;-78
2022/10/05 02:55:56;;;;;;;5.40;3.03;;;10.40;83.10;;;;;;5017792;28;20448;-78
2022/10/05 02:58:25;;;;;;;4.15;3.17;;;10.50;83.40;;;;;;5017934;28;20025;-78
2022/10/05 03:01:00;;;;;;;3.90;3.28;;;10.50;84.30;;;;;;5034201;28;20043;-77
2022/10/05 03:03:38;;;;;;;5.32;3.25;;;10.60;84.10;;;;;;5018517;28;20025;-78
2022/10/05 03:06:15;;;;;;;5.70;3.63;;;10.60;84.10;;;;;;5018123;28;20529;-77
2022/10/05 03:08:57;;;;;;;6.63;3.38;;;10.60;83.90;;;;;;5034056;28;20033;-78
2022/10/05 03:11:34;;;;;;;5.82;3.50;;;10.70;83.90;;;;;;5033965;28;20470;-77
2022/10/05 03:14:41;;;;;;;4.20;3.20;;;10.60;83.50;;;;;;5033949;28;20510;-77
2022/10/05 03:17:15;;;;;;;5.03;3.50;;;10.60;83.20;;;;;;5014641;28;20042;-77
2022/10/05 03:19:59;;;;;;;5.82;4.10;;;10.60;83.50;;;;;;5032442;28;20022;-77
2022/10/05 03:22:48;;;;;;;8.23;3.03;;;10.60;84.50;;;;;;5016906;28;20028;-77
2022/10/05 03:26:03;;;;;;;5.10;3.40;;;10.60;84.10;;;;;;5006534;28;20088;-77
2022/10/05 03:28:43;;;;;;;6.38;3.20;;;10.60;84.00;;;;;;5008494;28;20107;-77
2022/10/05 03:31:28;;;;;;;5.72;3.85;;;10.50;84.30;;;;;;5033677;28;20026;-77
2022/10/05 03:34:11;;;;;;;8.63;4.82;;;10.50;84.20;;;;;;5017857;28;20035;-77
2022/10/05 03:37:01;;;;;;;7.53;5.35;;;10.50;84.30;;;;;;5017639;28;20526;-77
2022/10/05 03:39:49;;;;;;;7.22;4.75;;;10.50;84.10;;;;;;5033173;28;20116;-77
2022/10/05 03:42:15;;;;;;;9.00;5.35;;;10.50;84.10;;;;;;5016738;28;20052;-77
2022/10/05 03:44:50;;;;;;;7.43;5.00;;;10.50;84.50;;;;;;5016367;28;20033;-78
2022/10/05 03:47:33;;;;;;;8.07;5.38;;;10.40;84.80;;;;;;5016783;28;20036;-77
2022/10/05 03:50:16;;;;;;;6.10;3.85;;;10.50;86.30;;;;;;5016832;28;20038;-77
2022/10/05 03:52:47;;;;;;;9.32;4.20;;;10.60;86.90;;;;;;5016646;28;20056;-77
2022/10/05 03:55:29;;;;;;;4.53;4.00;;;10.70;86.20;;;;;;5033118;28;20038;-77
2022/10/05 03:57:58;;;;;;;4.28;3.20;;;10.70;85.90;;;;;;5016522;28;20068;-77
2022/10/05 04:00:25;;;;;;;3.92;3.17;;;10.80;85.90;;;;;;5033046;28;20421;-77
2022/10/05 04:02:57;;;;;;;5.80;3.63;;;10.80;85.60;;;;;;5033091;28;20025;-77
2022/10/05 04:05:55;;;;;;;5.20;3.65;;;10.80;85.40;;;;;;5016446;28;20029;-77
2022/10/05 04:08:31;;;;;;;7.43;4.10;;;10.70;85.90;;;;;;5032727;28;20029;-77
2022/10/05 04:11:02;;;;;;;4.40;3.40;;;10.70;86.00;;;;;;5032910;28;20029;-77
2022/10/05 04:13:37;;;;;;;6.85;4.00;;;10.70;86.20;;;;;;5016313;28;20132;-77
2022/10/05 04:16:09;;;;;;;4.35;3.42;;;10.70;86.70;;;;;;5032439;28;20104;-77
2022/10/05 04:18:49;;;;;;;6.60;4.20;;;10.70;86.70;;;;;;5016214;28;20120;-78
2022/10/05 04:21:22;;;;;;;7.82;4.32;;;10.70;87.30;;;;;;5032684;28;20485;-77
2022/10/05 04:24:04;;;;;;;10.13;4.10;;;10.80;87.20;;;;;;5032640;28;20026;-77
2022/10/05 04:26:56;;;;;;;10.13;3.90;;;10.80;87.20;;;;;;5015845;28;20467;-75
2022/10/05 04:29:35;;;;;;;10.50;3.92;;;10.90;87.40;;;;;;5033490;28;20049;-78
2022/10/05 04:32:12;;;;;;;6.20;3.67;;;11.00;86.70;;;;;;5015679;28;20363;-78
2022/10/05 04:34:57;;;;;;;5.68;3.85;;;11.00;85.80;;;;;;5015859;28;20029;-77
2022/10/05 04:37:42;;;;;;;6.15;3.90;;;11.00;85.40;;;;;;5015649;28;20030;-77
2022/10/05 04:40:21;;;;;;;4.32;3.50;;;10.90;85.60;;;;;;5032434;28;20394;-76
2022/10/05 04:43:01;;;;;;;5.90;3.72;;;10.80;86.10;;;;;;5015700;28;20381;-77
2022/10/05 04:45:55;;;;;;;4.80;3.78;;;10.80;86.10;;;;;;5015415;28;20025;-77
2022/10/05 04:48:39;;;;;;;6.90;3.95;;;10.90;86.00;;;;;;5032400;28;20420;-77
2022/10/05 04:51:27;;;;;;;7.47;4.20;;;10.90;85.90;;;;;;5015518;28;20389;-77
2022/10/05 04:54:30;;;;;;;11.25;4.18;;;10.80;85.70;;;;;;5015253;28;20386;-77
2022/10/05 04:57:00;;;;;;;6.72;4.10;;;10.80;85.20;;;;;;4994622;28;20668;-78
2022/10/05 04:59:57;;;;;;;7.25;4.00;;;10.80;85.40;;;;;;4994877;28;20069;-77
2022/10/05 05:02:40;;;;;;;6.35;3.65;;;10.90;85.30;;;;;;4994592;28;20053;-77
2022/10/05 05:05:40;;;;;;;7.20;3.17;;;10.90;85.10;;;;;;5011217;28;20030;-78
2022/10/05 05:08:39;;;;;;;10.10;3.38;;;10.90;84.70;;;;;;5011077;28;20096;-78
2022/10/05 05:11:21;;;;;;;9.25;3.80;;;10.90;84.20;;;;;;4994363;28;20034;-78
2022/10/05 05:14:11;;;;;;;7.40;3.45;;;10.90;84.00;;;;;;4994207;28;20594;-78
2022/10/05 05:16:44;;;;;;;7.38;3.70;;;10.80;84.00;;;;;;4993892;28;20065;-78
2022/10/05 05:19:34;;;;;;;7.90;2.85;;;10.80;84.30;;;;;;4994312;28;20170;-78
2022/10/05 05:22:05;;;;;;;4.88;2.78;;;10.80;84.10;;;;;;4994158;28;20033;-78
2022/10/05 05:24:45;;;;;;;3.95;2.60;;;10.90;83.50;;;;;;4993908;28;20029;-79
2022/10/05 05:27:37;;;;;;;8.75;3.65;;;10.90;83.70;;;;;;4997648;28;20052;-79
2022/10/05 05:30:23;;;;;;;9.63;3.40;;;10.90;83.40;;;;;;5030978;28;20500;-78
2022/10/05 05:33:04;;;;;;;;;;;10.90;83.40;;;;;;5031570;28;20057;-78
2022/10/05 05:35:32;;;;;;;6.10;3.47;;;10.90;83.40;;;;;;5014296;28;19920;-77
2022/10/05 05:37:58;;;;;;;6.85;3.25;;;11.00;83.40;;;;;;5014505;28;20018;-77
2022/10/05 05:40:35;;;;;;;9.30;3.92;;;10.90;83.30;;;;;;5014764;28;20032;-78
2022/10/05 05:43:06;;;;;;;5.85;3.38;;;10.80;83.40;;;;;;5015871;28;20455;-78
2022/10/05 05:45:56;;;;;;;7.45;3.80;;;10.80;83.50;;;;;;5018548;28;20060;-78
2022/10/05 05:48:40;;;;;;;6.93;3.40;;;10.80;83.40;;;;;;5035161;28;20029;-78
2022/10/05 05:51:27;;;;;;;7.07;4.05;;;10.80;83.40;;;;;;5034683;28;20049;-78
2022/10/05 05:54:13;;;;;;;6.50;4.30;;;10.80;83.60;;;;;;5018240;28;20078;-78
2022/10/05 05:56:48;;;;;;;6.97;4.15;;;10.80;83.80;;;;;;5018570;28;20385;-79
2022/10/05 05:59:20;;;;;;;6.65;4.25;;;10.80;84.20;;;;;;5034935;28;20022;-78
2022/10/05 06:01:59;;;;;;;6.07;3.95;;;10.90;84.10;;;;;;5035004;28;20021;-80
2022/10/05 06:04:37;;;;;;;8.02;3.45;;;10.90;84.00;;;;;;5034327;28;20083;-76
2022/10/05 06:07:04;;;;;;;5.47;3.92;;;10.80;84.80;;;;;;5034340;28;20021;-79
2022/10/05 06:09:43;;;;;;;6.95;4.03;;;10.80;83.80;;;;;;5035028;28;20474;-77
2022/10/05 06:12:14;;;;;;;7.68;3.55;;;10.80;83.60;;;;;;5018378;28;20334;-76
2022/10/05 06:14:49;;;;;;;9.80;4.10;;;10.70;83.70;;;;;;5034757;28;20402;-75
2022/10/05 06:17:42;;;;;;;10.93;4.97;;;10.70;84.00;;;;;;5017999;28;20049;-76
2022/10/05 06:20:24;;;;;;;7.82;4.28;;;10.70;83.70;;;;;;4997145;28;20088;-76
2022/10/05 06:22:51;;;;;;;6.90;4.03;;;10.80;84.00;;;;;;4995536;28;20083;-78
2022/10/05 06:25:40;;;;;;;5.30;3.40;;;11.00;84.50;;;;;;5013354;28;20048;-77
2022/10/05 06:28:11;;;;;;;7.80;3.38;;;11.10;83.30;;;;;;4995701;28;20022;-78
2022/10/05 06:30:56;;;;;;;7.00;3.90;;;11.20;82.80;;;;;;4997024;28;20470;-79
2022/10/05 06:33:46;;;;;;;8.40;2.97;;;11.30;82.60;;;;;;4996902;28;20040;-78
2022/10/05 06:36:11;;;;;;;6.93;3.53;;;11.50;82.60;;;;;;4997182;28;20491;-79
2022/10/05 06:38:47;;;;;;;7.60;3.58;;;11.60;81.60;;;;;;4996957;28;20089;-79
2022/10/05 06:41:29;;;;;;;;;;;11.70;81.20;;;;;;4997303;28;20038;-80
2022/10/05 06:44:04;;;;;;;4.72;2.90;;;11.80;80.70;;;;;;4997026;28;20366;-78
2022/10/05 06:46:53;;;;;;;6.40;3.15;;;11.90;80.70;;;;;;4996982;28;20077;-78
2022/10/05 06:49:35;;;;;;;7.18;3.13;;;12.00;80.20;;;;;;4996121;28;20030;-77
2022/10/05 06:52:19;;;;;;;5.95;3.45;;;12.00;79.80;;;;;;5014344;28;20059;-76
2022/10/05 06:55:32;;;;;;;3.65;2.75;;;12.20;79.60;;;;;;5017318;28;20482;-76
2022/10/05 06:58:26;;;;;;;5.25;3.13;;;12.30;80.80;;;;;;5015286;28;20045;-76
2022/10/05 07:01:03;;;;;;;6.07;2.85;;;12.50;79.40;;;;;;5017469;28;20033;-79
2022/10/05 07:03:53;;;;;;;10.90;3.08;;;12.80;79.20;;;;;;5017372;28;20026;-75
2022/10/05 07:06:27;;;;;;;8.48;3.67;;;13.00;79.60;;;;;;5016724;28;20017;-76
2022/10/05 07:09:31;;;;;;;6.27;2.83;;;13.30;79.70;;;;;;5017022;28;20075;-75
2022/10/05 07:12:34;;;;;;;7.13;3.10;;;13.70;80.20;;;;;;5006667;28;20038;-75
2022/10/05 07:15:28;;;;;;;10.68;3.10;;;13.90;76.50;;;;;;5016972;28;20065;-75
2022/10/05 07:18:03;;;;;;;6.88;2.50;;;14.10;75.60;;;;;;5016589;28;20502;-75
2022/10/05 07:20:36;;;;;;;4.15;2.50;;;14.20;75.10;;;;;;5016734;28;20072;-74
2022/10/05 07:23:10;;;;;;;3.75;2.30;;;14.20;75.00;;;;;;5016833;28;20053;-75
2022/10/05 07:25:39;;;;;;;4.43;2.67;;;14.30;74.60;;;;;;5016741;28;20108;-75
2022/10/05 07:28:18;;;;;;;4.78;2.42;;;14.30;74.80;;;;;;5016760;28;20040;-74
2022/10/05 07:30:51;;;;;;;6.18;2.35;;;14.40;74.50;;;;;;5016826;28;20025;-75
2022/10/05 07:33:22;;;;;;;5.75;3.05;;;14.50;74.50;;;;;;5016590;28;20330;-74
2022/10/05 07:39:43;;;;;;;4.60;2.78;;;14.70;73.90;;;;;;5034554;28;20087;-74
2022/10/05 07:42:18;;;;;;;;;;;14.90;74.20;;;;;;5017233;28;20021;-74
2022/10/05 07:44:54;;;;;;;10.13;2.83;;;15.00;73.60;;;;;;5016487;28;19905;-75
2022/10/05 07:47:47;;;;;;;5.55;2.83;;;15.10;73.60;;;;;;5016650;28;20085;-74
2022/10/05 07:50:19;;;;;;;4.28;2.63;;;15.40;73.80;;;;;;5016437;28;20038;-74
2022/10/05 07:52:51;;;;;;;5.82;2.83;;;15.50;73.00;;;;;;5016126;28;20017;-74
2022/10/05 07:55:20;;;;;;;3.80;2.60;;;15.70;72.80;;;;;;5016161;28;20061;-75
2022/10/05 07:57:49;;;;;;;6.25;2.80;;;15.80;72.10;;;;;;5016186;28;20165;-74
2022/10/05 08:00:23;;;;;;;4.80;2.90;;;16.00;71.80;;;;;;5016289;28;20034;-75
2022/10/05 08:02:57;;;;;;;4.28;2.50;;;16.20;71.60;;;;;;5016142;28;20028;-76
2022/10/05 08:05:32;;;;;;;8.38;2.45;;;16.20;71.80;;;;;;5015374;28;20013;-75
2022/10/05 08:08:10;;;;;;;7.95;2.42;;;16.30;72.20;;;;;;5032277;28;20025;-76
2022/10/05 08:10:46;;;;;;;2.78;1.88;;;16.30;72.20;;;;;;5015304;28;20037;-76
2022/10/05 08:13:27;;;;;;;3.78;1.88;;;16.40;71.90;;;;;;5015780;28;20025;-76
2022/10/05 08:15:58;;;;;;;4.00;1.77;;;16.60;72.20;;;;;;5033513;28;20064;-76
2022/10/05 08:18:57;;;;;;;4.72;1.98;;;16.70;72.50;;;;;;5015524;28;20037;-76
2022/10/05 08:21:31;;;;;;;2.75;1.85;;;16.80;72.70;;;;;;5015628;28;20037;-77
2022/10/05 08:24:28;;;;;;;7.50;2.25;;;17.00;71.90;;;;;;5015756;28;20055;-76
2022/10/05 08:27:13;;;;;;;5.55;2.17;;;17.20;71.40;;;;;;5015856;28;20547;-77
2022/10/05 08:29:44;;;;;;;4.28;1.98;;;17.40;71.00;;;;;;5015940;28;20025;-78
2022/10/05 08:32:29;;;;;;;4.15;1.75;;;17.60;71.30;;;;;;5015797;28;20029;-77
2022/10/05 08:35:06;;;;;;;4.65;2.22;;;17.80;71.00;;;;;;5015110;28;20030;-77
2022/10/05 08:37:39;;;;;;;7.93;2.75;;;18.00;69.20;;;;;;5015741;28;20107;-79
2022/10/05 08:40:32;;;;;;;6.85;2.00;;;18.20;68.60;;;;;;5015427;28;20029;-76
2022/10/05 08:43:10;;;;;;;3.45;1.90;;;18.40;67.30;;;;;;5015701;28;20026;-76
2022/10/05 08:45:57;;;;;;;4.45;1.30;;;18.60;67.50;;;;;;5015351;28;20045;-77
2022/10/05 08:48:41;;;;;;;6.80;1.38;;;18.80;62.40;;;;;;5015476;28;20021;-77
2022/10/05 08:51:15;;;;;;;2.00;1.35;;;18.90;60.30;;;;;;5015685;28;20021;-77
2022/10/05 08:54:25;;;;;;;4.95;1.35;;;19.10;61.00;;;;;;5015417;28;20025;-76
2022/10/05 08:57:21;;;;;;;2.30;1.17;;;19.30;58.40;;;;;;5015376;28;20026;-76
2022/10/05 09:00:10;;;;;;;2.83;1.13;;;19.50;59.60;;;;;;5015007;28;20032;-76
2022/10/05 09:03:27;;;;;;;4.28;1.20;;;19.70;58.80;;;;;;5015354;28;20477;-76
2022/10/05 09:06:33;;;;;;;3.20;1.38;;;19.80;56.30;;;;;;4999175;28;20038;-76
2022/10/05 09:08:59;;;;;;;;;;;20.00;57.10;;;;;;5007319;28;20048;-76
2022/10/05 09:11:31;;;;;;;2.15;1.30;;;20.10;56.10;;;;;;5014867;28;19912;-76
2022/10/05 09:14:19;;;;;;;2.88;1.10;;;20.10;55.40;;;;;;5032616;28;20037;-76
2022/10/05 09:17:18;;;;;;;2.47;1.00;;;20.30;55.90;;;;;;5014509;28;20498;-76
2022/10/05 09:20:11;;;;;;;7.75;1.20;;;20.50;54.40;;;;;;5014862;28;20428;-77
2022/10/05 09:22:58;;;;;;;2.40;1.02;;;20.60;53.20;;;;;;5032122;28;20079;-76
2022/10/05 09:25:40;;;;;;;3.28;1.10;;;20.80;51.70;;;;;;5032246;28;20030;-76
2022/10/05 09:28:22;;;;;;;2.95;1.00;;;20.80;51.20;;;;;;5014784;28;20040;-76
2022/10/05 09:31:37;;;;;;;2.92;0.95;;;21.00;50.90;;;;;;5014917;28;20029;-76
2022/10/05 09:34:16;;;;;;;1.67;0.98;;;20.90;52.10;;;;;;4955318;28;20154;-76
2022/10/05 09:36:50;;;;;;;2.63;0.98;;;21.10;51.60;;;;;;4955041;28;20034;-76
2022/10/05 09:39:51;;;;;;;2.45;0.77;;;21.20;49.90;;;;;;4992313;28;20366;-76
2022/10/05 09:42:56;;;;;;;1.63;1.00;;;21.30;50.60;;;;;;5004305;28;20037;-76
2022/10/05 09:45:39;;;;;;;3.55;1.08;;;21.40;49.30;;;;;;4992186;28;20033;-76
2022/10/05 09:48:46;;;;;;;4.00;1.10;;;21.40;48.90;;;;;;5014291;28;20025;-76
2022/10/05 09:51:35;;;;;;;1.30;1.08;;;21.70;48.10;;;;;;5014842;28;20156;-76
2022/10/05 09:54:38;;;;;;;3.53;1.20;;;21.70;48.60;;;;;;4985770;28;20037;-76
2022/10/05 09:57:38;;;;;;;4.82;1.30;;;21.80;48.70;;;;;;5013769;28;20069;-76
2022/10/05 10:00:15;;;;;;;4.57;1.40;;;22.00;48.80;;;;;;5014613;28;20083;-78
2022/10/05 10:02:56;;;;;;;2.08;1.00;;;22.00;48.00;;;;;;5014410;28;20104;-77
2022/10/05 10:06:10;;;;;;;3.25;1.10;;;22.10;46.70;;;;;;5014502;28;20024;-78
2022/10/05 10:08:55;;;;;;;1.75;1.00;;;22.10;48.00;;;;;;5019692;28;20513;-76
2022/10/05 10:11:58;;;;;;;1.20;1.10;;;22.30;46.30;;;;;;5014138;28;20013;-76
2022/10/05 10:15:09;;;;;;;1.70;0.80;;;22.20;46.90;;;;;;5014172;28;20092;-76
2022/10/05 10:17:46;;;;;;;1.85;0.90;;;22.30;44.70;;;;;;5014142;28;20369;-76
2022/10/05 10:20:38;;;;;;;34.67;4.05;;;22.20;44.00;;;;;;5017875;28;20389;-76
2022/10/05 10:23:33;;;;;;;2.08;0.90;;;22.20;45.20;;;;;;5014720;28;20028;-76
2022/10/05 10:26:20;;;;;;;4.20;0.80;;;22.50;44.50;;;;;;4998385;28;20119;-76
2022/10/05 10:29:04;;;;;;;4.88;1.10;;;22.60;44.70;;;;;;5015519;28;20037;-75
2022/10/05 10:32:09;;;;;;;7.68;1.38;;;22.70;44.10;;;;;;5017425;28;20037;-76
2022/10/05 10:35:04;;;;;;;2.88;1.40;;;22.60;44.10;;;;;;5018164;28;20037;-75
2022/10/05 10:37:39;;;;;;;1.67;0.68;;;22.60;43.50;;;;;;5004579;28;20045;-75
2022/10/05 10:40:24;;;;;;;3.10;1.13;;;22.50;44.20;;;;;;5033639;28;20022;-75
2022/10/05 10:43:21;;;;;;;3.80;0.77;;;22.50;45.20;;;;;;5017403;28;20357;-74
2022/10/05 10:46:09;;;;;;;1.48;0.85;;;22.50;43.70;;;;;;5017437;28;20079;-74
2022/10/05 10:48:47;;;;;;;1.92;0.98;;;22.70;43.00;;;;;;4987335;28;20060;-74
2022/10/05 10:51:18;;;;;;;1.17;0.70;;;22.80;43.90;;;;;;5017172;28;20091;-75
2022/10/05 10:54:26;;;;;;;1.67;0.60;;;22.90;43.10;;;;;;5017054;28;20079;-74
2022/10/05 10:57:02;;;;;;;2.40;1.10;;;23.00;41.70;;;;;;5016537;28;20029;-75
2022/10/05 10:59:42;;;;;;;1.63;0.93;;;23.00;42.30;;;;;;5033446;28;20037;-76
2022/10/05 11:02:41;;;;;;;2.38;0.95;;;22.90;42.10;;;;;;5015774;28;20149;-78
2022/10/05 11:05:43;;;;;;;3.03;0.70;;;23.20;42.80;;;;;;5014418;28;20159;-77
2022/10/05 11:08:27;;;;;;;1.90;0.90;;;23.20;40.80;;;;;;5014837;28;20025;-77
2022/10/05 11:11:18;;;;;;;1.63;0.80;;;23.40;40.70;;;;;;5015230;28;20022;-77
2022/10/05 11:14:07;;;;;;;4.45;0.73;;;23.30;40.50;;;;;;5015061;28;20017;-77
2022/10/05 11:16:52;;;;;;;1.40;0.88;;;23.20;40.40;;;;;;5019393;28;20076;-76
2022/10/05 11:19:40;;;;;;;1.52;0.70;;;23.10;38.80;;;;;;5015850;28;20088;-76
2022/10/05 11:22:30;;;;;;;0.63;0.57;;;22.90;38.30;;;;;;5015216;28;20034;-79
2022/10/05 11:25:31;;;;;;;1.38;0.50;;;22.90;38.10;;;;;;5015686;28;20030;-77
2022/10/05 11:28:22;;;;;;;1.13;0.55;;;23.20;39.20;;;;;;4993716;28;20034;-78
2022/10/05 11:31:05;;;;;;;2.72;0.88;;;23.70;38.20;;;;;;5015579;28;20071;-78
2022/10/05 11:34:04;;;;;;;0.52;0.50;;;23.90;36.50;;;;;;5016358;28;20022;-79
2022/10/05 11:37:14;;;;;;;0.40;0.40;;;24.00;35.90;;;;;;4994307;28;20343;-77
2022/10/05 11:40:11;;;;;;;3.20;0.90;;;24.00;33.60;;;;;;5032234;28;20026;-79
2022/10/05 11:42:52;;;;;;;2.70;0.68;;;24.40;34.60;;;;;;5016213;28;20036;-76
2022/10/05 11:45:22;;;;;;;2.67;0.40;;;24.60;35.80;;;;;;5016563;28;20382;-76
2022/10/05 11:48:03;;;;;;;2.63;0.60;;;24.60;34.90;;;;;;5032855;28;20175;-75
2022/10/05 11:50:37;;;;;;;1.23;0.60;;;24.40;33.70;;;;;;5032818;28;20021;-78
2022/10/05 11:53:31;;;;;;;1.40;0.70;;;24.40;34.20;;;;;;5016551;28;20022;-78
2022/10/05 11:56:22;;;;;;;2.00;0.73;;;24.30;32.30;;;;;;5035498;28;20289;-79
2022/10/05 11:59:07;;;;;;;3.05;0.52;;;24.30;33.70;;;;;;5032893;28;20032;-76
2022/10/05 12:01:50;;;;;;;0.60;0.50;;;24.20;33.40;;;;;;5033148;28;20053;-77
2022/10/05 12:04:25;;;;;;;3.10;0.70;;;24.10;34.90;;;;;;5016169;28;20026;-76
2022/10/05 12:07:18;;;;;;;0.98;0.60;;;24.30;34.60;;;;;;5032850;28;20445;-77
2022/10/05 12:10:16;;;;;;;1.85;0.30;;;24.20;32.60;;;;;;5016118;28;20116;-78
2022/10/05 12:13:03;;;;;;;0.73;0.45;;;24.20;32.70;;;;;;5015931;28;20339;-78
2022/10/05 12:15:44;;;;;;;2.60;0.55;;;24.30;32.70;;;;;;5015696;28;20120;-75
2022/10/05 12:18:38;;;;;;;0.40;0.40;;;24.50;33.60;;;;;;5015990;28;20034;-78
2022/10/05 12:21:05;;;;;;;0.50;0.50;;;24.70;32.50;;;;;;4994291;28;20037;-78
2022/10/05 12:23:59;;;;;;;0.55;0.50;;;25.00;32.50;;;;;;5032629;28;20029;-78
2022/10/05 12:26:48;;;;;;;2.75;0.60;;;25.20;31.90;;;;;;5015578;28;20068;-79
2022/10/05 12:29:35;;;;;;;1.77;0.60;;;25.30;31.90;;;;;;5033743;28;20109;-77
2022/10/05 12:32:16;;;;;;;1.52;0.63;;;25.20;31.60;;;;;;5032219;28;20032;-77
2022/10/05 12:35:23;;;;;;;1.35;0.57;;;25.60;31.20;;;;;;5032038;28;20060;-77
2022/10/05 12:38:06;;;;;;;4.18;0.85;;;25.90;29.60;;;;;;4956132;28;20095;-78
2022/10/05 12:40:37;;;;;;;0.65;0.57;;;26.30;31.10;;;;;;5013390;28;20052;-77
2022/10/05 12:43:22;;;;;;;1.88;0.52;;;26.20;30.60;;;;;;5015719;28;20092;-76
2022/10/05 12:46:18;;;;;;;3.30;0.70;;;26.40;29.40;;;;;;5015417;28;20025;-77
2022/10/05 12:49:01;;;;;;;2.47;0.60;;;26.40;30.00;;;;;;5014983;28;20028;-76
2022/10/05 12:51:32;;;;;;;2.80;0.60;;;26.30;30.10;;;;;;5015236;28;20044;-75
2022/10/05 12:54:26;;;;;;;0.57;0.57;;;26.40;29.30;;;;;;5015256;28;20079;-78
2022/10/05 12:57:26;;;;;;;0.88;0.50;;;26.00;30.40;;;;;;5015691;28;20080;-78
2022/10/05 13:00:17;;;;;;;0.50;0.50;;;26.00;29.20;;;;;;5005001;28;20502;-77
2022/10/05 13:02:46;;;;;;;0.75;0.47;;;25.90;29.50;;;;;;5008687;28;20143;-78
2022/10/05 13:05:33;;;;;;;1.35;0.50;;;25.80;30.10;;;;;;5031979;28;20025;-77
2022/10/05 13:08:08;;;;;;;1.48;0.60;;;25.90;30.60;;;;;;5014728;28;20124;-76
2022/10/05 13:10:45;;;;;;;3.38;0.85;;;26.20;29.90;;;;;;5014685;28;20067;-76
2022/10/05 13:13:36;;;;;;;2.50;0.60;;;26.40;29.20;;;;;;5015444;28;20438;-77
2022/10/05 13:16:22;;;;;;;5.15;0.88;;;26.70;28.30;;;;;;5019632;28;20424;-77
2022/10/05 13:19:14;;;;;;;1.90;0.80;;;26.70;28.60;;;;;;5031563;28;20017;-77
2022/10/05 13:21:57;;;;;;;1.30;0.52;;;27.00;28.30;;;;;;5015469;28;20026;-77
2022/10/05 13:24:35;;;;;;;3.03;0.50;;;27.00;28.00;;;;;;5014664;28;20641;-77
2022/10/05 13:27:21;;;;;;;2.08;0.40;;;26.80;25.00;;;;;;5031608;28;20064;-77
2022/10/05 13:30:01;;;;;;;2.65;0.68;;;26.80;24.50;;;;;;5032113;28;20033;-77
2022/10/05 13:32:48;;;;;;;2.42;0.20;;;26.80;18.50;;;;;;5032929;28;20091;-78
2022/10/05 13:35:16;;;;;;;1.52;0.38;;;26.90;17.40;;;;;;5031416;28;20061;-78
2022/10/05 13:38:19;;;;;;;0.47;0.17;;;26.30;18.40;;;;;;5015056;28;20064;-78
2022/10/05 13:41:02;;;;;;;1.30;0.20;;;26.10;19.70;;;;;;5031675;28;20190;-77
2022/10/05 13:43:42;;;;;;;0.75;0.25;;;26.40;18.80;;;;;;5031024;28;20022;-78
2022/10/05 13:46:27;;;;;;;0.43;0.38;;;26.70;18.80;;;;;;5031332;28;20018;-80
2022/10/05 13:49:17;;;;;;;1.23;0.30;;;26.90;18.30;;;;;;5014925;28;20496;-78
2022/10/05 13:52:02;;;;;;;0.47;0.30;;;27.20;17.80;;;;;;5014614;28;20125;-78
2022/10/05 13:54:46;;;;;;;0.77;0.20;;;27.30;17.10;;;;;;5014741;28;20029;-78
2022/10/05 13:57:43;;;;;;;1.60;0.30;;;27.20;17.50;;;;;;5014510;28;20362;-77
2022/10/05 14:00:28;;;;;;;0.60;0.40;;;27.10;18.50;;;;;;4994174;28;20048;-77
2022/10/05 14:02:56;;;;;;;4.70;0.70;;;27.20;18.90;;;;;;5031039;28;20025;-77
2022/10/05 14:05:26;;;;;;;1.02;0.70;;;27.30;19.00;;;;;;5035049;28;20052;-78
2022/10/05 14:08:01;;;;;;;0.98;0.50;;;27.60;18.40;;;;;;5034791;28;20481;-78
2022/10/05 14:10:40;;;;;;;0.95;0.40;;;27.60;17.30;;;;;;5018064;28;20117;-78
2022/10/05 14:13:22;;;;;;;0.20;0.20;;;27.60;17.60;;;;;;5034745;28;20128;-78
2022/10/05 14:16:03;;;;;;;1.85;0.22;;;27.20;17.90;;;;;;5034223;28;20045;-78